createdAt,value
2023-05-13T00:02:03.595Z,86.0
2023-05-13T00:07:09.806Z,85.5
2023-05-13T00:12:16.031Z,85.5
2023-05-13T00:17:22.230Z,85.0
2023-05-13T00:22:28.441Z,85.0
2023-05-13T00:27:34.648Z,85.0
2023-05-13T00:32:40.876Z,84.5
2023-05-13T00:37:47.070Z,84.5
2023-05-13T00:42:53.265Z,84.5
2023-05-13T00:47:59.501Z,84.0
2023-05-13T00:53:05.680Z,84.0
2023-05-13T00:58:11.903Z,83.5
2023-05-13T01:03:18.186Z,83.5
2023-05-13T01:08:24.300Z,83.5
2023-05-13T01:13:30.508Z,83.0
2023-05-13T01:18:36.786Z,83.0
2023-05-13T01:23:42.921Z,83.0
2023-05-13T01:28:49.134Z,82.5
2023-05-13T01:33:55.341Z,82.5
2023-05-13T01:39:01.572Z,82.5
2023-05-13T01:44:07.750Z,82.5
2023-05-13T01:49:13.955Z,83.0
2023-05-13T01:54:20.166Z,83.0
2023-05-13T01:59:26.392Z,83.0
2023-05-13T02:04:32.589Z,83.5
2023-05-13T02:09:38.801Z,83.5
2023-05-13T02:14:45.011Z,83.5
2023-05-13T02:19:51.222Z,83.5
2023-05-13T02:24:57.444Z,84.0
2023-05-13T02:30:03.686Z,84.0
2023-05-13T02:35:09.870Z,84.5
2023-05-13T02:40:16.080Z,84.5
2023-05-13T02:45:22.305Z,85.0
2023-05-13T02:50:28.518Z,85.0
2023-05-13T02:55:34.754Z,85.0
2023-05-13T03:00:40.952Z,85.5
2023-05-13T03:05:47.165Z,86.0
2023-05-13T03:10:53.372Z,86.0
2023-05-13T03:15:59.625Z,86.5
2023-05-13T03:21:05.798Z,86.5
2023-05-13T03:26:12.019Z,86.5
2023-05-13T03:31:18.278Z,87.0
2023-05-13T03:36:24.438Z,87.0
2023-05-13T03:41:30.656Z,87.0
2023-05-13T03:46:36.916Z,87.5
2023-05-13T03:51:43.065Z,87.5
2023-05-13T03:56:49.273Z,87.5
2023-05-13T04:01:55.488Z,87.5
2023-05-13T04:07:01.723Z,88.0
2023-05-13T04:12:07.906Z,88.0
2023-05-13T04:17:14.169Z,88.5
2023-05-13T04:22:20.323Z,88.5
2023-05-13T04:27:26.554Z,89.0
2023-05-13T04:32:32.779Z,89.5
2023-05-13T04:37:38.974Z,89.5
2023-05-13T04:42:44.164Z,89.5
2023-05-13T04:47:50.454Z,90.0
2023-05-13T04:52:56.688Z,90.0
2023-05-13T04:58:02.794Z,90.0
2023-05-13T05:03:09.149Z,90.5
2023-05-13T05:08:15.329Z,90.5
2023-05-13T05:13:21.414Z,90.5
2023-05-13T05:18:27.768Z,90.5
2023-05-13T05:23:33.835Z,91.0
2023-05-13T05:28:40.437Z,91.0
2023-05-13T05:33:46.262Z,91.0
2023-05-13T05:38:52.475Z,91.0
2023-05-13T05:43:58.685Z,91.0
2023-05-13T05:49:04.898Z,91.5
2023-05-13T05:54:11.116Z,91.5
2023-05-13T05:59:17.329Z,91.5
2023-05-13T06:04:23.620Z,92.0
2023-05-13T06:09:29.744Z,92.0
2023-05-13T06:14:35.964Z,92.0
2023-05-13T06:19:42.179Z,92.0
2023-05-13T06:24:48.419Z,92.0
2023-05-13T06:29:54.601Z,91.5
2023-05-13T06:35:00.828Z,92.0
2023-05-13T06:40:07.029Z,91.5
2023-05-13T06:45:13.227Z,91.5
2023-05-13T06:50:19.624Z,91.5
2023-05-13T06:55:25.637Z,91.0
2023-05-13T07:00:31.867Z,91.0
2023-05-13T07:05:38.063Z,90.5
2023-05-13T07:10:44.259Z,90.5
2023-05-13T07:15:50.476Z,90.0
2023-05-13T07:20:56.671Z,89.5
2023-05-13T07:26:02.900Z,89.0
2023-05-13T07:31:09.133Z,88.5
2023-05-13T07:36:15.344Z,88.0
2023-05-13T07:41:21.543Z,87.5
2023-05-13T07:46:27.738Z,87.0
2023-05-13T07:51:33.929Z,86.5
2023-05-13T07:56:40.148Z,86.0
2023-05-13T08:01:46.467Z,85.5
2023-05-13T08:06:52.565Z,84.5
2023-05-13T08:11:58.780Z,84.5
2023-05-13T08:17:04.977Z,84.0
2023-05-13T08:22:11.184Z,83.5
2023-05-13T08:27:17.391Z,83.0
2023-05-13T08:32:23.623Z,83.0
2023-05-13T08:37:29.839Z,82.5
2023-05-13T08:42:36.011Z,82.5
2023-05-13T08:47:42.256Z,82.5
2023-05-13T08:52:48.440Z,81.0
2023-05-13T09:03:00.893Z,78.5
2023-05-13T09:08:07.071Z,78.5
2023-05-13T09:13:13.298Z,78.5
2023-05-13T09:18:19.732Z,78.5
2023-05-13T09:23:25.695Z,78.0
2023-05-13T09:28:31.896Z,78.5
2023-05-13T09:33:38.118Z,78.0
2023-05-13T09:38:44.322Z,77.0
2023-05-13T09:43:50.516Z,76.5
2023-05-13T09:48:57.127Z,75.5
2023-05-13T09:54:02.943Z,73.5
2023-05-13T09:59:09.183Z,72.5
2023-05-13T10:04:15.397Z,72.0
2023-05-13T10:09:21.575Z,72.0
2023-05-13T10:14:26.795Z,71.5
2023-05-13T10:19:33.004Z,70.0
2023-05-13T10:24:39.222Z,70.5
2023-05-13T10:29:45.439Z,70.5
2023-05-13T10:34:51.647Z,70.0
2023-05-13T10:39:57.839Z,69.5
2023-05-13T10:45:04.050Z,68.5
2023-05-13T10:50:10.258Z,68.0
2023-05-13T10:55:16.463Z,68.0
2023-05-13T11:00:22.864Z,67.5
2023-05-13T11:05:28.891Z,66.5
2023-05-13T11:10:35.093Z,66.0
2023-05-13T11:15:41.307Z,66.5
2023-05-13T11:25:53.720Z,65.5
2023-05-13T11:30:59.971Z,65.0
2023-05-13T11:36:06.153Z,64.0
2023-05-13T11:41:12.361Z,64.0
2023-05-13T11:46:18.601Z,64.0
2023-05-13T11:51:24.788Z,62.0
2023-05-13T11:56:31.005Z,62.0
2023-05-13T12:01:37.208Z,62.0
2023-05-13T12:06:43.432Z,60.5
2023-05-13T12:11:49.634Z,60.0
2023-05-13T12:16:55.848Z,59.0
2023-05-13T12:22:02.986Z,60.0
2023-05-13T12:27:11.301Z,60.0
2023-05-13T12:32:14.495Z,58.5
2023-05-13T12:37:20.704Z,57.5
2023-05-13T12:42:26.933Z,57.0
2023-05-13T12:47:33.156Z,57.0
2023-05-13T12:52:39.362Z,57.0
2023-05-13T12:57:45.581Z,56.5
2023-05-13T13:02:52.094Z,0.0
2023-05-13T13:07:58.247Z,56.5
2023-05-13T13:13:04.449Z,55.0
2023-05-13T13:18:10.755Z,54.5
2023-05-13T13:23:16.889Z,54.5
2023-05-13T13:28:23.099Z,54.0
2023-05-13T13:33:29.323Z,53.5
2023-05-13T13:38:35.534Z,54.0
2023-05-13T13:43:41.753Z,54.0
2023-05-13T13:48:47.962Z,52.5
2023-05-13T13:53:54.422Z,0.0
2023-05-13T13:59:00.628Z,52.5
2023-05-13T14:04:06.915Z,52.5
2023-05-13T14:09:13.079Z,53.0
2023-05-13T14:14:19.285Z,52.5
2023-05-13T14:19:25.803Z,52.5
2023-05-13T14:24:31.726Z,52.0
2023-05-13T14:29:37.978Z,51.5
2023-05-13T14:34:44.180Z,51.5
2023-05-13T14:39:50.465Z,51.0
2023-05-13T14:44:56.630Z,50.5
2023-05-13T14:50:02.911Z,49.5
2023-05-13T14:55:09.070Z,50.0
2023-05-13T15:00:15.289Z,49.0
2023-05-13T15:05:21.514Z,49.5
2023-05-13T15:10:27.722Z,49.5
2023-05-13T15:15:33.948Z,49.0
2023-05-13T15:20:40.164Z,49.0
2023-05-13T15:25:46.388Z,48.5
2023-05-13T15:30:52.735Z,48.5
2023-05-13T15:35:58.824Z,48.0
2023-05-13T15:41:05.055Z,48.0
2023-05-13T15:46:10.349Z,48.5
2023-05-13T15:51:16.513Z,48.5
2023-05-13T15:56:22.719Z,48.5
2023-05-13T16:01:28.973Z,47.5
2023-05-13T16:06:35.132Z,48.0
2023-05-13T16:11:41.355Z,47.5
2023-05-13T16:16:46.738Z,47.0
2023-05-13T16:21:52.815Z,47.5
2023-05-13T16:26:59.244Z,47.5
2023-05-13T16:37:11.463Z,47.0
2023-05-13T16:42:17.686Z,47.0
2023-05-13T16:47:24.007Z,47.5
2023-05-13T16:52:30.130Z,47.5
2023-05-13T16:57:36.365Z,47.5
2023-05-13T17:02:42.672Z,47.0
2023-05-13T17:07:48.787Z,47.0
2023-05-13T17:12:55.636Z,46.5
2023-05-13T17:18:01.354Z,46.5
2023-05-13T17:23:07.442Z,47.0
2023-05-13T17:28:13.665Z,47.0
2023-05-13T17:33:19.886Z,47.0
2023-05-13T17:38:26.090Z,47.0
2023-05-13T17:43:32.536Z,0.0
2023-05-13T17:48:38.809Z,46.5
2023-05-13T17:53:44.972Z,46.5
2023-05-13T17:58:51.184Z,47.0
2023-05-13T18:03:57.405Z,47.0
2023-05-13T18:09:03.642Z,47.5
2023-05-13T18:14:09.843Z,47.5
2023-05-13T18:19:16.109Z,48.0
2023-05-13T18:24:22.259Z,48.5
2023-05-13T18:29:28.488Z,48.5
2023-05-13T18:34:34.688Z,49.0
2023-05-13T18:39:40.917Z,49.5
2023-05-13T18:44:47.112Z,50.0
2023-05-13T18:49:53.319Z,50.5
2023-05-13T18:54:59.668Z,51.0
2023-05-13T19:00:05.772Z,52.0
2023-05-13T19:05:11.953Z,52.5
2023-05-13T19:10:18.152Z,53.0
2023-05-13T19:15:24.391Z,53.5
2023-05-13T19:20:30.579Z,54.0
2023-05-13T19:25:36.781Z,55.0
2023-05-13T19:30:43.014Z,55.5
2023-05-13T19:35:49.203Z,56.0
2023-05-13T19:40:55.414Z,56.5
2023-05-13T19:46:01.650Z,57.5
2023-05-13T19:51:07.875Z,57.5
2023-05-13T19:56:14.040Z,58.0
2023-05-13T20:01:20.257Z,59.0
2023-05-13T20:06:26.449Z,60.0
2023-05-13T20:11:32.655Z,60.5
2023-05-13T20:16:38.963Z,61.0
2023-05-13T20:21:45.082Z,61.5
2023-05-13T20:26:51.326Z,62.5
2023-05-13T20:31:57.532Z,63.0
2023-05-13T20:37:03.714Z,63.5
2023-05-13T20:42:09.910Z,63.5
2023-05-13T20:47:16.124Z,63.5
2023-05-13T20:52:22.358Z,63.5
2023-05-13T20:57:28.548Z,64.0
2023-05-13T21:02:34.814Z,64.0
2023-05-13T21:07:40.970Z,64.0
2023-05-13T21:12:47.174Z,64.5
2023-05-13T21:17:53.469Z,65.0
2023-05-13T21:22:59.595Z,65.0
2023-05-13T21:28:05.790Z,65.5
2023-05-13T21:33:12.038Z,66.0
2023-05-13T21:38:18.205Z,66.5
2023-05-13T21:43:24.414Z,66.5
2023-05-13T21:48:29.685Z,67.0
2023-05-13T21:53:35.846Z,67.5
2023-05-13T21:58:42.060Z,68.0
2023-05-13T22:03:48.264Z,68.5
2023-05-13T22:08:54.477Z,68.5
2023-05-13T22:14:00.685Z,69.0
2023-05-13T22:19:06.955Z,69.5
2023-05-13T22:24:13.099Z,70.0
2023-05-13T22:29:19.306Z,70.0
2023-05-13T22:34:25.523Z,70.5
2023-05-13T22:39:31.726Z,70.5
2023-05-13T22:44:37.973Z,71.0
2023-05-13T22:49:44.143Z,71.0
2023-05-13T22:54:50.352Z,71.5
2023-05-13T22:59:56.560Z,71.5
2023-05-13T23:05:02.771Z,72.0
2023-05-13T23:10:08.978Z,72.5
2023-05-13T23:15:15.198Z,72.5
2023-05-13T23:20:21.544Z,72.5
2023-05-13T23:25:27.619Z,73.0
2023-05-13T23:30:33.805Z,73.5
2023-05-13T23:35:40.028Z,74.0
2023-05-13T23:40:46.219Z,74.0
2023-05-13T23:45:52.465Z,74.5
2023-05-13T23:50:58.641Z,74.5
2023-05-13T23:56:04.872Z,74.5
